RKTU/CHN METAR and TAF weather

Enter ICAO airport designator
Station Type Date Time Source
RKTU METAR 2022/12/05 14:00 UTC NOAA

RKTU 051400Z 03001KT CAVOK M07/M10 Q1028


Station Type Date Time Source
RKTU Decoded METAR 2022/12/05 14:00 UTC NOAA

Chongju Ab, Korea, South (RKTU) 36-42N 127-30E 66M
Dec 05, 2022 - 09:00 AM EST / 2022.12.05 1400 UTC
Wind: from the NNE (030 degrees) at 1 MPH (1 KT):0
Visibility: greater than 7 mile(s):0
Temperature: 19 F (-7 C)
Dew Point: 14 F (-10 C)
Relative Humidity: 79%
Pressure (altimeter): 30.36 in. Hg (1028 hPa)
ob: RKTU 051400Z 03001KT CAVOK M07/M10 Q1028
cycle: 14

Station Type Date Time Source
RKTU TAF 2022/12/05 12:07 UTC NOAA

TAF RKTU 051100Z 0512/0618 33006KT CAVOK TNM05/0521Z TX02/0606Z
BECMG 0518/0519 30006KT 9000 -SN BKN030
BECMG 0522/0523 27006KT 9999 NSW
TEMPO 0604/0618 -SN

Example: see airport list